Frio Chikuma — 3FWG8 — position and weather

sailwx.info

Track history (hours):
 
Tides and Currents Weather Stations Pressure Air Temp Water Temp Dewpoint Dewpoint Depression Visibility Wind Speed Wind Dir Waves Ship Positions

Frio Chikuma

Last reported at 2016-Dec-04 02:21 UTC. Time now 2016-Dec-05 18:42 UTC.
Position N 27°42' W 015°20'.

; draft 5.1 m.

Type: Cargo ship. MMSI: 353306000.

Date/timePositionNaut miles runAvg speedWind from/ knotsBaromVisibWave heightAir tempDewpointWater temp
2016-Dec-04 02:21N 27°42' W 015°20'1315.8
2016-Dec-04 01:34N 27°54' W 015°17'1211.4
2016-Dec-04 00:33N 28°05' W 015°20'1110.9
2016-Dec-03 23:33N 28°14' W 015°13'1616.5
2016-Dec-03 22:33N 28°26' W 014°60'1615.9
2016-Dec-03 21:33N 28°40' W 014°51'10 9.5
2016-Dec-03 20:34N 28°31' W 014°55'1616.3
2016-Dec-03 19:34N 28°17' W 015°05'1312.9
2016-Dec-03 18:33N 28°06' W 015°12'1 1.0
2016-Dec-03 17:33N 28°07' W 015°13'4 3.5
2016-Dec-03 16:33N 28°07' W 015°17'7 6.6
2016-Dec-03 15:33N 28°07' W 015°24'2 1.9
2016-Dec-03 14:33N 28°09' W 015°25'0 0.0
2016-Dec-03 13:33N 28°09' W 015°25'0 0.0
2016-Dec-03 12:33N 28°09' W 015°25'0 0.0
2016-Dec-03 11:33N 28°09' W 015°25'0 0.0
2016-Dec-03 10:33N 28°09' W 015°25'0 0.0
2016-Dec-03 09:33N 28°09' W 015°25'0 0.0
2016-Dec-03 08:33N 28°09' W 015°25'0 0.0
2016-Dec-03 07:33N 28°09' W 015°25'0 0.0
2016-Dec-03 06:33N 28°09' W 015°25'0 0.0
2016-Dec-03 05:33N 28°09' W 015°25'0 0.0
2016-Dec-03 04:33N 28°09' W 015°25'0 0.0
2016-Dec-03 03:33N 28°09' W 015°25'0 0.0
2016-Dec-03 02:33N 28°09' W 015°25'0 0.0
2016-Dec-03 01:33N 28°09' W 015°25'0 0.0
2016-Dec-03 00:33N 28°09' W 015°25'0 0.0
2016-Dec-02 23:33N 28°09' W 015°25'0 0.0
2016-Dec-02 22:33N 28°09' W 015°25'0 0.0
2016-Dec-02 21:33N 28°09' W 015°25'0 0.0
2016-Dec-02 20:33N 28°09' W 015°25'0 0.0
2016-Dec-02 19:33N 28°09' W 015°25'0 0.0
2016-Dec-02 18:33N 28°09' W 015°25'0 0.0
2016-Dec-02 17:33N 28°09' W 015°25'3 3.5
2016-Dec-02 16:33N 28°05' W 015°24'0 0.1
2016-Dec-02 15:33N 28°05' W 015°24'0 0.0
2016-Dec-02 14:33N 28°05' W 015°24'0 0.0
2016-Dec-02 13:33N 28°05' W 015°24'0 0.1
2016-Dec-02 12:24N 28°05' W 015°24'0 0.0
2016-Dec-02 11:27N 28°05' W 015°24'0 0.0
2016-Dec-02 10:27N 28°05' W 015°24'0 0.0
2016-Dec-02 09:27N 28°05' W 015°24'0 0.1
2016-Dec-02 08:30N 28°05' W 015°24'2 2.2
2016-Dec-02 07:33N 28°07' W 015°22'4 4.3
2016-Dec-02 06:33N 28°07' W 015°17'6 6.0
2016-Dec-02 05:33N 28°01' W 015°16'7 6.5
2016-Dec-02 04:33N 27°55' W 015°15'7 6.9
2016-Dec-02 03:33N 27°48' W 015°13'9 8.6
2016-Dec-02 02:33N 27°43' W 015°06'1110.6
2016-Dec-02 01:33N 27°37' W 014°55'5 5.2
2016-Dec-02 00:33N 27°35' W 014°50'0 0.4
2016-Dec-01 23:33N 27°35' W 014°50'0 0.2
2016-Dec-01 22:34N 27°35' W 014°49'0 0.3
2016-Dec-01 21:33N 27°35' W 014°49'0 0.3
2016-Dec-01 20:34N 27°35' W 014°49'0 0.4
2016-Dec-01 19:33N 27°35' W 014°48'0 0.4
2016-Dec-01 18:33N 27°35' W 014°48'0 0.3
2016-Dec-01 17:33N 27°35' W 014°48'1 0.5
2016-Dec-01 16:33N 27°35' W 014°47'1 0.6
2016-Dec-01 15:33N 27°35' W 014°46'1 0.6
2016-Dec-01 14:33N 27°35' W 014°46'1 0.7
2016-Dec-01 13:33N 27°35' W 014°45'1 0.6
2016-Dec-01 12:33N 27°35' W 014°44'0 0.5
2016-Dec-01 11:33N 27°35' W 014°44'0 0.4
2016-Dec-01 10:33N 27°36' W 014°43'0 0.5
2016-Dec-01 09:33N 27°36' W 014°43'0 0.3
2016-Dec-01 08:33N 27°36' W 014°43'0 0.3
2016-Dec-01 07:33N 27°36' W 014°42'0 0.3
2016-Dec-01 06:17N 27°37' W 014°42'0 0.2
2016-Dec-01 05:32N 27°37' W 014°42'0 0.2
2016-Dec-01 04:31N 27°37' W 014°42'0 0.2
2016-Dec-01 03:33N 27°37' W 014°42'0 0.3
2016-Dec-01 02:25N 27°37' W 014°42'1 0.7
2016-Dec-01 01:27N 27°38' W 014°42'1 0.8
2016-Dec-01 00:14N 27°39' W 014°42'1 0.9
2016-Nov-30 23:04N 27°40' W 014°42'1 1.0
2016-Nov-30 22:13N 27°41' W 014°42'1 1.0
2016-Nov-30 21:15N 27°42' W 014°42'1 0.7
2016-Nov-30 19:32N 27°43' W 014°43'1 0.6
2016-Nov-30 18:32N 27°42' W 014°44'1 0.6
2016-Nov-30 17:33N 27°42' W 014°44'1 0.7
2016-Nov-30 16:33N 27°42' W 014°45'1 0.8
2016-Nov-30 15:33N 27°41' W 014°45'1 0.8
2016-Nov-30 14:33N 27°40' W 014°46'1 0.7
2016-Nov-30 13:33N 27°40' W 014°46'1 0.9
2016-Nov-30 12:33N 27°39' W 014°47'1 0.8
2016-Nov-30 11:33N 27°38' W 014°47'1 0.7
2016-Nov-30 10:33N 27°38' W 014°48'1 0.6
2016-Nov-30 09:33N 27°37' W 014°48'1 0.5
2016-Nov-30 08:33N 27°37' W 014°48'1 0.6
2016-Nov-30 07:33N 27°36' W 014°49'1 0.6
2016-Nov-30 06:32N 27°36' W 014°50'1 0.7
2016-Nov-30 05:33N 27°36' W 014°50'3 0.7
2016-Nov-30 01:33N 27°35' W 014°53'1 0.7
2016-Nov-30 00:33N 27°34' W 014°54'10 0.4
2016-Nov-28 21:31N 27°25' W 014°57'3 1.0
2016-Nov-28 18:05N 27°28' W 014°59'0 0.9
2016-Nov-28 17:32N 27°28' W 014°59'1 1.1
2016-Nov-28 16:32N 27°29' W 014°59'1 1.1
2016-Nov-28 15:27N 27°30' W 014°59'1 1.1
2016-Nov-28 14:33N 27°31' W 014°59'1 1.0
2016-Nov-28 13:31N 27°32' W 014°60'1 0.9
2016-Nov-28 12:33N 27°33' W 015°00'1 1.0
2016-Nov-28 11:33N 27°34' W 015°01'1 0.8
2016-Nov-28 10:33N 27°35' W 015°01'5 4.8
2016-Nov-28 09:33N 27°32' W 015°05'  
2016-Nov-24 20:13N 07°52' W 015°32'  
Track history (hours):
 
Tides and Currents Weather Stations Pressure Air Temp Water Temp Dewpoint Dewpoint Depression Visibility Wind Speed Wind Dir Waves Ship Positions

Frio Chikuma

Last reported at 2016-Dec-04 02:21 UTC. Time now 2016-Dec-05 18:42 UTC.
Position N 27°42' W 015°20'.

; draft 5.1 m.

Type: Cargo ship. MMSI: 353306000.

Date/timePositionNaut miles runAvg speedWind from/ knotsBaromVisibWave heightAir tempDewpointWater temp
2016-Dec-04 02:21N 27°42' W 015°20'1315.8
2016-Dec-04 01:34N 27°54' W 015°17'1211.4
2016-Dec-04 00:33N 28°05' W 015°20'1110.9
2016-Dec-03 23:33N 28°14' W 015°13'1616.5
2016-Dec-03 22:33N 28°26' W 014°60'1615.9
2016-Dec-03 21:33N 28°40' W 014°51'10 9.5
2016-Dec-03 20:34N 28°31' W 014°55'1616.3
2016-Dec-03 19:34N 28°17' W 015°05'1312.9
2016-Dec-03 18:33N 28°06' W 015°12'1 1.0
2016-Dec-03 17:33N 28°07' W 015°13'4 3.5
2016-Dec-03 16:33N 28°07' W 015°17'7 6.6
2016-Dec-03 15:33N 28°07' W 015°24'2 1.9
2016-Dec-03 14:33N 28°09' W 015°25'0 0.0
2016-Dec-03 13:33N 28°09' W 015°25'0 0.0
2016-Dec-03 12:33N 28°09' W 015°25'0 0.0
2016-Dec-03 11:33N 28°09' W 015°25'0 0.0
2016-Dec-03 10:33N 28°09' W 015°25'0 0.0
2016-Dec-03 09:33N 28°09' W 015°25'0 0.0
2016-Dec-03 08:33N 28°09' W 015°25'0 0.0
2016-Dec-03 07:33N 28°09' W 015°25'0 0.0
2016-Dec-03 06:33N 28°09' W 015°25'0 0.0
2016-Dec-03 05:33N 28°09' W 015°25'0 0.0
2016-Dec-03 04:33N 28°09' W 015°25'0 0.0
2016-Dec-03 03:33N 28°09' W 015°25'0 0.0
2016-Dec-03 02:33N 28°09' W 015°25'0 0.0
2016-Dec-03 01:33N 28°09' W 015°25'0 0.0
2016-Dec-03 00:33N 28°09' W 015°25'0 0.0
2016-Dec-02 23:33N 28°09' W 015°25'0 0.0
2016-Dec-02 22:33N 28°09' W 015°25'0 0.0
2016-Dec-02 21:33N 28°09' W 015°25'0 0.0
2016-Dec-02 20:33N 28°09' W 015°25'0 0.0
2016-Dec-02 19:33N 28°09' W 015°25'0 0.0
2016-Dec-02 18:33N 28°09' W 015°25'0 0.0
2016-Dec-02 17:33N 28°09' W 015°25'3 3.5
2016-Dec-02 16:33N 28°05' W 015°24'0 0.1
2016-Dec-02 15:33N 28°05' W 015°24'0 0.0
2016-Dec-02 14:33N 28°05' W 015°24'0 0.0
2016-Dec-02 13:33N 28°05' W 015°24'0 0.1
2016-Dec-02 12:24N 28°05' W 015°24'0 0.0
2016-Dec-02 11:27N 28°05' W 015°24'0 0.0
2016-Dec-02 10:27N 28°05' W 015°24'0 0.0
2016-Dec-02 09:27N 28°05' W 015°24'0 0.1
2016-Dec-02 08:30N 28°05' W 015°24'2 2.2
2016-Dec-02 07:33N 28°07' W 015°22'4 4.3
2016-Dec-02 06:33N 28°07' W 015°17'6 6.0
2016-Dec-02 05:33N 28°01' W 015°16'7 6.5
2016-Dec-02 04:33N 27°55' W 015°15'7 6.9
2016-Dec-02 03:33N 27°48' W 015°13'9 8.6
2016-Dec-02 02:33N 27°43' W 015°06'1110.6
2016-Dec-02 01:33N 27°37' W 014°55'5 5.2
2016-Dec-02 00:33N 27°35' W 014°50'0 0.4
2016-Dec-01 23:33N 27°35' W 014°50'0 0.2
2016-Dec-01 22:34N 27°35' W 014°49'0 0.3
2016-Dec-01 21:33N 27°35' W 014°49'0 0.3
2016-Dec-01 20:34N 27°35' W 014°49'0 0.4
2016-Dec-01 19:33N 27°35' W 014°48'0 0.4
2016-Dec-01 18:33N 27°35' W 014°48'0 0.3
2016-Dec-01 17:33N 27°35' W 014°48'1 0.5
2016-Dec-01 16:33N 27°35' W 014°47'1 0.6
2016-Dec-01 15:33N 27°35' W 014°46'1 0.6
2016-Dec-01 14:33N 27°35' W 014°46'1 0.7
2016-Dec-01 13:33N 27°35' W 014°45'1 0.6
2016-Dec-01 12:33N 27°35' W 014°44'0 0.5
2016-Dec-01 11:33N 27°35' W 014°44'0 0.4
2016-Dec-01 10:33N 27°36' W 014°43'0 0.5
2016-Dec-01 09:33N 27°36' W 014°43'0 0.3
2016-Dec-01 08:33N 27°36' W 014°43'0 0.3
2016-Dec-01 07:33N 27°36' W 014°42'0 0.3
2016-Dec-01 06:17N 27°37' W 014°42'0 0.2
2016-Dec-01 05:32N 27°37' W 014°42'0 0.2
2016-Dec-01 04:31N 27°37' W 014°42'0 0.2
2016-Dec-01 03:33N 27°37' W 014°42'0 0.3
2016-Dec-01 02:25N 27°37' W 014°42'1 0.7
2016-Dec-01 01:27N 27°38' W 014°42'1 0.8
2016-Dec-01 00:14N 27°39' W 014°42'1 0.9
2016-Nov-30 23:04N 27°40' W 014°42'1 1.0
2016-Nov-30 22:13N 27°41' W 014°42'1 1.0
2016-Nov-30 21:15N 27°42' W 014°42'1 0.7
2016-Nov-30 19:32N 27°43' W 014°43'1 0.6
2016-Nov-30 18:32N 27°42' W 014°44'1 0.6
2016-Nov-30 17:33N 27°42' W 014°44'1 0.7
2016-Nov-30 16:33N 27°42' W 014°45'1 0.8
2016-Nov-30 15:33N 27°41' W 014°45'1 0.8
2016-Nov-30 14:33N 27°40' W 014°46'1 0.7
2016-Nov-30 13:33N 27°40' W 014°46'1 0.9
2016-Nov-30 12:33N 27°39' W 014°47'1 0.8
2016-Nov-30 11:33N 27°38' W 014°47'1 0.7
2016-Nov-30 10:33N 27°38' W 014°48'1 0.6
2016-Nov-30 09:33N 27°37' W 014°48'1 0.5
2016-Nov-30 08:33N 27°37' W 014°48'1 0.6
2016-Nov-30 07:33N 27°36' W 014°49'1 0.6
2016-Nov-30 06:32N 27°36' W 014°50'1 0.7
2016-Nov-30 05:33N 27°36' W 014°50'3 0.7
2016-Nov-30 01:33N 27°35' W 014°53'1 0.7
2016-Nov-30 00:33N 27°34' W 014°54'10 0.4
2016-Nov-28 21:31N 27°25' W 014°57'3 1.0
2016-Nov-28 18:05N 27°28' W 014°59'0 0.9
2016-Nov-28 17:32N 27°28' W 014°59'1 1.1
2016-Nov-28 16:32N 27°29' W 014°59'1 1.1
2016-Nov-28 15:27N 27°30' W 014°59'1 1.1
2016-Nov-28 14:33N 27°31' W 014°59'1 1.0
2016-Nov-28 13:31N 27°32' W 014°60'1 0.9
2016-Nov-28 12:33N 27°33' W 015°00'1 1.0
2016-Nov-28 11:33N 27°34' W 015°01'1 0.8
2016-Nov-28 10:33N 27°35' W 015°01'5 4.8
2016-Nov-28 09:33N 27°32' W 015°05'  
2016-Nov-24 20:13N 07°52' W 015°32'  

Dump ship's entire track history